createdAt,value
2022-08-23T00:05:08.129Z,20.67
2022-08-23T00:10:15.683Z,20.70
2022-08-23T00:15:20.466Z,20.66
2022-08-23T00:20:22.048Z,20.58
2022-08-23T00:25:24.187Z,20.65
2022-08-23T00:30:25.767Z,20.53
2022-08-23T00:35:27.802Z,20.33
2022-08-23T00:40:29.445Z,20.39
2022-08-23T00:45:56.622Z,20.34
2022-08-23T00:51:11.165Z,20.30
2022-08-23T00:56:15.667Z,20.23
2022-08-23T01:01:18.243Z,20.24
2022-08-23T01:06:27.202Z,20.26
2022-08-23T01:11:35.085Z,20.18
2022-08-23T01:16:55.457Z,20.21
2022-08-23T01:22:10.257Z,20.23
2022-08-23T01:27:13.196Z,20.17
2022-08-23T01:32:14.939Z,20.18
2022-08-23T01:37:16.558Z,20.11
2022-08-23T01:42:18.466Z,20.15
2022-08-23T01:47:20.023Z,20.20
2022-08-23T01:52:21.598Z,20.15
2022-08-23T01:57:24.166Z,20.12
2022-08-23T02:02:26.170Z,20.23
2022-08-23T02:07:28.934Z,20.38
2022-08-23T02:12:30.608Z,20.37
2022-08-23T02:17:32.181Z,20.29
2022-08-23T02:22:33.778Z,20.28
2022-08-23T02:27:35.366Z,20.47
2022-08-23T02:32:36.932Z,20.25
2022-08-23T02:37:38.624Z,20.25
2022-08-23T02:42:40.172Z,20.40
2022-08-23T02:47:42.590Z,20.40
2022-08-23T02:52:44.145Z,20.41
2022-08-23T02:57:46.513Z,20.38
2022-08-23T03:02:48.370Z,20.24
2022-08-23T03:07:50.842Z,20.17
2022-08-23T03:12:52.456Z,20.13
2022-08-23T03:17:54.204Z,20.09
2022-08-23T03:22:55.968Z,20.04
2022-08-23T03:27:58.200Z,20.06
2022-08-23T03:33:01.513Z,19.96
2022-08-23T03:38:03.243Z,19.78
2022-08-23T03:43:05.125Z,19.97
2022-08-23T03:48:06.891Z,19.85
2022-08-23T03:53:09.151Z,19.97
2022-08-23T03:58:14.763Z,20.02
2022-08-23T04:03:16.673Z,20.07
2022-08-23T04:08:26.991Z,20.17
2022-08-23T04:13:36.338Z,20.12
2022-08-23T04:18:37.959Z,20.17
2022-08-23T04:23:40.297Z,20.16
2022-08-23T04:28:41.928Z,20.01
2022-08-23T04:33:43.481Z,20.02
2022-08-23T04:38:45.078Z,19.92
2022-08-23T04:43:47.051Z,19.86
2022-08-23T04:48:49.006Z,19.90
2022-08-23T04:53:51.006Z,19.82
2022-08-23T04:58:53.033Z,19.82
2022-08-23T05:03:55.420Z,19.82
2022-08-23T05:08:58.182Z,19.92
2022-08-23T05:14:00.153Z,19.82
2022-08-23T05:19:01.838Z,19.71
2022-08-23T05:24:03.942Z,19.75
2022-08-23T05:29:05.615Z,19.74
2022-08-23T05:34:07.355Z,19.63
2022-08-23T05:39:08.953Z,19.87
2022-08-23T05:44:11.790Z,19.83
2022-08-23T05:49:16.335Z,20.05
2022-08-23T05:54:22.830Z,20.10
2022-08-23T05:59:24.486Z,20.20
2022-08-23T06:04:26.069Z,20.50
2022-08-23T06:09:28.033Z,20.51
2022-08-23T06:14:29.717Z,20.73
2022-08-23T06:19:31.313Z,20.93
2022-08-23T06:24:33.366Z,21.21
2022-08-23T06:29:34.934Z,21.32
2022-08-23T06:34:38.214Z,21.29
2022-08-23T06:39:40.274Z,21.32
2022-08-23T06:44:42.315Z,21.35
2022-08-23T06:49:55.376Z,21.53
2022-08-23T06:55:00.041Z,21.53
2022-08-23T07:00:01.634Z,21.57
2022-08-23T07:05:04.137Z,22.51
2022-08-23T07:10:06.710Z,22.66
2022-08-23T07:15:09.964Z,22.49
2022-08-23T07:20:11.685Z,22.68
2022-08-23T07:25:13.571Z,22.90
2022-08-23T07:30:16.110Z,22.82
2022-08-23T07:35:17.687Z,23.01
2022-08-23T07:40:20.673Z,22.88
2022-08-23T07:45:25.301Z,22.99
2022-08-23T07:50:30.391Z,22.96
2022-08-23T07:55:32.260Z,22.98
2022-08-23T08:00:34.351Z,22.91
2022-08-23T08:05:36.109Z,23.07
2022-08-23T08:10:43.909Z,23.20
2022-08-23T08:15:45.531Z,23.45
2022-08-23T08:20:48.935Z,23.60
2022-08-23T08:26:02.891Z,23.82
2022-08-23T08:31:05.571Z,23.89
2022-08-23T08:36:08.566Z,24.03
2022-08-23T08:41:22.380Z,24.00
2022-08-23T08:46:27.840Z,24.05
2022-08-23T08:51:48.784Z,24.18
2022-08-23T08:56:55.924Z,24.25
2022-08-23T09:01:58.621Z,24.49
2022-08-23T09:07:16.132Z,24.74
2022-08-23T09:12:27.207Z,24.94
2022-08-23T09:17:44.014Z,25.05
2022-08-23T09:22:52.852Z,25.21
2022-08-23T09:27:54.368Z,25.35
2022-08-23T09:33:16.248Z,25.50
2022-08-23T09:38:20.364Z,25.62
2022-08-23T09:43:26.214Z,25.66
2022-08-23T09:48:35.751Z,25.76
2022-08-23T09:53:40.922Z,25.86
2022-08-23T09:58:53.506Z,25.94
2022-08-23T10:04:29.610Z,25.95
2022-08-23T10:09:33.606Z,26.13
2022-08-23T10:14:35.191Z,25.73
2022-08-23T10:20:08.871Z,25.60
2022-08-23T10:25:16.453Z,25.69
2022-08-23T10:30:27.459Z,25.55
2022-08-23T10:36:17.042Z,25.53
2022-08-23T10:41:24.218Z,25.74
2022-08-23T10:46:33.984Z,25.72
2022-08-23T10:51:43.277Z,25.69
2022-08-23T10:56:48.696Z,25.64
2022-08-23T11:02:22.120Z,25.81
2022-08-23T11:07:32.441Z,25.76
2022-08-23T11:12:49.491Z,25.79
2022-08-23T11:17:51.539Z,25.77
2022-08-23T11:23:02.115Z,25.94
2022-08-23T11:28:22.286Z,26.13
2022-08-23T11:33:29.912Z,26.12
2022-08-23T11:38:43.302Z,26.27
2022-08-23T11:43:56.944Z,26.15
2022-08-23T11:49:29.771Z,26.12
2022-08-23T11:55:05.207Z,26.16
2022-08-23T12:00:17.806Z,26.16
2022-08-23T12:05:33.869Z,26.22
2022-08-23T12:10:41.364Z,26.28
2022-08-23T12:16:04.874Z,26.28
2022-08-23T12:21:16.215Z,26.16
2022-08-23T12:26:28.900Z,26.23
2022-08-23T12:31:48.356Z,26.09
2022-08-23T12:37:12.685Z,26.19
2022-08-23T12:42:17.581Z,25.94
2022-08-23T12:47:21.943Z,25.57
2022-08-23T12:52:26.401Z,25.71
2022-08-23T12:57:34.045Z,25.83
2022-08-23T13:02:37.249Z,25.73
2022-08-23T13:07:40.441Z,25.68
2022-08-23T13:12:42.807Z,25.78
2022-08-23T13:17:44.404Z,25.64
2022-08-23T13:23:28.228Z,25.78
2022-08-23T13:28:31.141Z,25.88
2022-08-23T13:33:33.039Z,25.92
2022-08-23T13:38:34.658Z,26.07
2022-08-23T13:43:48.806Z,26.17
2022-08-23T13:49:11.608Z,26.35
2022-08-23T13:54:15.551Z,26.45
2022-08-23T13:59:39.436Z,26.42
2022-08-23T14:04:42.051Z,26.24
2022-08-23T14:09:43.679Z,26.04
2022-08-23T14:14:46.148Z,26.02
2022-08-23T14:20:32.848Z,25.78
2022-08-23T14:25:12.559Z,25.69
2022-08-23T14:30:32.494Z,25.62
2022-08-23T14:35:34.168Z,25.55
2022-08-23T14:40:36.334Z,25.49
2022-08-23T14:45:37.956Z,25.44
2022-08-23T14:50:41.157Z,25.36
2022-08-23T14:55:42.878Z,25.38
2022-08-23T15:00:44.412Z,25.33
2022-08-23T15:05:46.024Z,25.30
2022-08-23T15:10:52.924Z,25.27
2022-08-23T15:16:11.634Z,25.27
2022-08-23T15:21:14.885Z,25.26
2022-08-23T15:26:22.609Z,25.25
2022-08-23T15:31:24.869Z,25.19
2022-08-23T15:36:28.031Z,25.04
2022-08-23T15:41:29.533Z,24.96
2022-08-23T15:46:31.185Z,24.82
2022-08-23T15:51:32.768Z,24.75
2022-08-23T15:56:39.724Z,24.72
2022-08-23T16:01:42.083Z,24.76
2022-08-23T16:06:45.118Z,24.77
2022-08-23T16:11:46.686Z,24.73
2022-08-23T16:16:48.412Z,24.62
2022-08-23T16:21:52.970Z,24.53
2022-08-23T16:26:54.686Z,24.52
2022-08-23T16:31:56.196Z,24.43
2022-08-23T16:37:00.177Z,24.35
2022-08-23T16:42:04.301Z,24.29
2022-08-23T16:47:08.611Z,24.23
2022-08-23T16:52:10.696Z,24.20
2022-08-23T16:57:12.506Z,24.13
2022-08-23T17:02:27.676Z,24.15
2022-08-23T17:07:29.304Z,24.08
2022-08-23T17:12:31.702Z,24.05
2022-08-23T17:17:33.365Z,24.01
2022-08-23T17:22:34.964Z,23.98
2022-08-23T17:27:40.073Z,23.95
2022-08-23T17:32:44.370Z,23.92
2022-08-23T17:37:46.002Z,23.90
2022-08-23T17:42:47.567Z,23.90
2022-08-23T17:47:49.094Z,23.87
2022-08-23T17:52:50.862Z,23.83
2022-08-23T17:57:55.094Z,23.75
2022-08-23T18:02:59.878Z,23.67
2022-08-23T18:08:01.945Z,23.58
2022-08-23T18:13:04.199Z,23.49
2022-08-23T18:18:05.959Z,23.39
2022-08-23T18:23:07.923Z,23.33
2022-08-23T18:28:11.099Z,23.22
2022-08-23T18:33:13.316Z,23.13
2022-08-23T18:38:14.868Z,23.03
2022-08-23T18:43:20.638Z,22.94
2022-08-23T18:48:23.216Z,22.84
2022-08-23T18:53:24.944Z,22.76
2022-08-23T18:58:26.549Z,22.67
2022-08-23T19:03:30.023Z,22.56
2022-08-23T19:08:31.517Z,22.49
2022-08-23T19:13:33.099Z,22.40
2022-08-23T19:18:35.761Z,22.35
2022-08-23T19:23:37.734Z,22.27
2022-08-23T19:28:40.657Z,22.23
2022-08-23T19:33:42.517Z,22.16
2022-08-23T19:38:44.043Z,22.15
2022-08-23T19:43:45.592Z,22.17
2022-08-23T19:48:48.035Z,22.16
2022-08-23T19:54:04.748Z,22.02
2022-08-23T19:59:10.974Z,21.89
2022-08-23T20:04:12.859Z,21.84
2022-08-23T20:09:14.698Z,21.75
2022-08-23T20:14:16.277Z,21.62
2022-08-23T20:19:18.362Z,21.52
2022-08-23T20:29:44.752Z,21.66
2022-08-23T20:34:46.242Z,21.69
2022-08-23T20:39:48.376Z,21.71
2022-08-23T20:44:50.043Z,21.68
2022-08-23T20:49:51.586Z,21.59
2022-08-23T20:54:53.523Z,21.55
2022-08-23T20:59:55.051Z,21.49
2022-08-23T21:04:56.573Z,21.46
2022-08-23T21:09:59.305Z,21.43
2022-08-23T21:15:00.830Z,21.38
2022-08-23T21:20:04.559Z,21.29
2022-08-23T21:25:09.815Z,21.14
2022-08-23T21:30:11.726Z,21.05
2022-08-23T21:35:13.813Z,20.92
2022-08-23T21:40:15.462Z,20.86
2022-08-23T21:45:16.985Z,20.83
2022-08-23T21:50:19.041Z,20.74
2022-08-23T21:55:20.537Z,20.71
2022-08-23T22:00:22.714Z,20.77
2022-08-23T22:05:24.612Z,20.70
2022-08-23T22:10:26.632Z,20.61
2022-08-23T22:15:28.173Z,20.59
2022-08-23T22:20:31.515Z,20.54
2022-08-23T22:25:33.209Z,20.49
2022-08-23T22:30:35.102Z,20.44
2022-08-23T22:35:36.967Z,20.41
2022-08-23T22:40:39.429Z,20.29
2022-08-23T22:45:54.654Z,20.19
2022-08-23T22:51:18.312Z,20.16
2022-08-23T22:56:26.593Z,20.11
2022-08-23T23:01:34.876Z,20.03
2022-08-23T23:06:37.411Z,19.94
2022-08-23T23:11:40.472Z,19.90
2022-08-23T23:16:44.491Z,19.85
2022-08-23T23:21:51.564Z,19.76
2022-08-23T23:26:53.248Z,19.75
2022-08-23T23:31:55.753Z,19.79
2022-08-23T23:36:58.219Z,19.74
2022-08-23T23:41:59.725Z,19.72
2022-08-23T23:47:02.346Z,19.68
2022-08-23T23:52:05.560Z,19.63
2022-08-23T23:57:07.571Z,19.58
